Time;durP1;ratioP1;P1;durP2;ratioP2;P2;SDS_P1;SDS_P2;PMS_P1;PMS_P2;Temp;Humidity;BMP_temperature;BMP_pressure;BME280_temperature;BME280_humidity;BME280_pressure;Samples;Min_cycle;Max_cycle;Signal;HPM_P1;HPM_P2
2023/01/18 00:01:35;;;;;;;6.68;2.95;;;1.10;99.90;;;;;;5051652;28;20037;-75
2023/01/18 00:04:00;;;;;;;6.95;3.00;;;1.10;99.90;;;;;;5034289;28;20044;-75
2023/01/18 00:06:26;;;;;;;7.15;3.13;;;1.10;99.90;;;;;;5050949;28;20053;-75
2023/01/18 00:08:53;;;;;;;6.72;2.92;;;1.00;99.90;;;;;;5052408;28;20495;-75
2023/01/18 00:11:19;;;;;;;6.72;3.55;;;1.00;99.90;;;;;;5050591;28;20749;-75
2023/01/18 00:13:45;;;;;;;6.95;3.20;;;1.00;99.90;;;;;;5038155;28;20037;-75
2023/01/18 00:16:12;;;;;;;6.80;2.85;;;1.00;99.90;;;;;;5045732;28;20069;-75
2023/01/18 00:18:38;;;;;;;7.95;3.20;;;1.00;99.90;;;;;;5051031;28;20079;-75
2023/01/18 00:21:06;;;;;;;6.70;2.85;;;1.00;99.90;;;;;;5051590;28;20072;-75
2023/01/18 00:23:32;;;;;;;8.63;3.20;;;1.00;99.90;;;;;;5045956;28;20048;-75
2023/01/18 00:26:02;;;;;;;9.40;3.78;;;1.00;99.90;;;;;;5032170;28;20423;-75
2023/01/18 00:28:29;;;;;;;6.47;2.70;;;1.00;99.90;;;;;;5033626;28;20103;-75
2023/01/18 00:30:55;;;;;;;7.68;3.33;;;0.90;99.90;;;;;;5035675;28;20041;-75
2023/01/18 00:33:20;;;;;;;7.78;3.47;;;0.90;99.90;;;;;;5035292;28;20068;-75
2023/01/18 00:36:00;;;;;;;7.88;3.72;;;0.90;99.90;;;;;;5033900;28;20068;-75
2023/01/18 00:38:27;;;;;;;8.55;3.42;;;0.90;99.90;;;;;;5049723;28;20080;-75
2023/01/18 00:40:53;;;;;;;6.40;3.15;;;0.80;99.90;;;;;;5048097;28;20099;-75
2023/01/18 00:43:37;;;;;;;8.30;3.65;;;0.80;99.90;;;;;;5034559;28;20045;-75
2023/01/18 00:46:07;;;;;;;7.82;3.00;;;0.80;99.90;;;;;;5049594;28;20037;-75
2023/01/18 00:48:33;;;;;;;8.35;3.60;;;0.90;99.90;;;;;;5045368;28;20485;-75
2023/01/18 00:50:59;;;;;;;8.73;3.50;;;0.80;99.90;;;;;;5031730;28;20044;-75
2023/01/18 00:53:25;;;;;;;7.68;3.50;;;0.80;99.90;;;;;;5048100;28;20033;-75
2023/01/18 00:55:51;;;;;;;6.72;3.13;;;0.80;99.90;;;;;;5047490;28;20051;-75
2023/01/18 00:58:16;;;;;;;6.60;3.38;;;0.80;99.90;;;;;;5044664;28;20076;-75
2023/01/18 01:00:42;;;;;;;7.78;3.42;;;0.80;99.90;;;;;;5051709;28;20131;-75
2023/01/18 01:03:08;;;;;;;5.63;3.00;;;0.90;99.90;;;;;;5052036;28;20094;-75
2023/01/18 01:08:22;;;;;;;7.93;3.58;;;0.90;99.90;;;;;;5031811;28;20136;-75
2023/01/18 01:10:50;;;;;;;7.38;3.53;;;0.90;99.90;;;;;;5031725;28;20520;-75
2023/01/18 01:27:05;;;;;;;9.30;3.95;;;0.70;99.90;;;;;;5051481;28;20045;-75
2023/01/18 01:29:30;;;;;;;8.82;3.97;;;0.70;99.90;;;;;;5034783;28;20044;-75
2023/01/18 01:31:56;;;;;;;10.05;3.78;;;0.70;99.90;;;;;;5050278;28;20044;-75
2023/01/18 01:34:22;;;;;;;9.90;4.22;;;0.70;99.90;;;;;;5033159;28;20041;-75
2023/01/18 01:36:49;;;;;;;7.93;3.70;;;0.70;99.90;;;;;;5050631;28;20501;-75
2023/01/18 01:39:15;;;;;;;8.43;3.95;;;0.70;99.90;;;;;;5050123;28;20057;-75
2023/01/18 01:41:41;;;;;;;9.77;3.92;;;0.70;99.90;;;;;;5051365;28;20048;-75
2023/01/18 01:44:16;;;;;;;7.45;3.90;;;0.60;99.90;;;;;;5051474;28;20045;-75
2023/01/18 01:46:57;;;;;;;8.18;3.85;;;0.60;99.90;;;;;;5049399;28;20041;-75
2023/01/18 01:49:31;;;;;;;11.52;3.97;;;0.60;99.90;;;;;;5052357;28;20130;-75
2023/01/18 01:52:03;;;;;;;8.82;4.15;;;0.60;99.90;;;;;;5055049;28;20044;-75
2023/01/18 01:54:36;;;;;;;7.03;3.30;;;0.70;99.90;;;;;;5055121;28;20040;-75
2023/01/18 01:57:33;;;;;;;8.93;3.58;;;0.60;99.90;;;;;;5037706;28;20100;-75
2023/01/18 01:59:58;;;;;;;8.15;3.72;;;0.70;99.90;;;;;;5055200;28;20393;-75
2023/01/18 02:02:24;;;;;;;7.38;3.78;;;0.60;99.90;;;;;;5038581;28;20119;-75
2023/01/18 02:04:53;;;;;;;7.15;3.63;;;0.60;99.90;;;;;;5054688;28;20132;-75
2023/01/18 02:07:22;;;;;;;8.57;3.75;;;0.70;99.90;;;;;;5054150;28;20455;-75
2023/01/18 02:09:50;;;;;;;8.07;3.97;;;0.70;99.90;;;;;;5054712;28;20049;-75
2023/01/18 02:12:16;;;;;;;8.43;3.67;;;0.70;99.90;;;;;;5038109;28;20560;-75
2023/01/18 02:14:41;;;;;;;7.85;3.80;;;0.70;99.90;;;;;;5038268;28;20124;-75
2023/01/18 02:17:17;;;;;;;9.88;3.78;;;0.70;99.90;;;;;;5052605;28;20041;-75
2023/01/18 02:20:18;;;;;;;8.93;4.20;;;0.70;99.90;;;;;;5053515;28;20045;-75
2023/01/18 02:23:19;;;;;;;6.95;4.40;;;0.70;99.90;;;;;;5054332;28;20037;-75
2023/01/18 02:26:13;;;;;;;6.90;4.00;;;0.70;99.90;;;;;;5008144;28;20393;-75
2023/01/18 02:28:43;;;;;;;9.57;4.30;;;0.60;99.90;;;;;;5054539;28;20048;-75
2023/01/18 02:31:12;;;;;;;7.65;4.10;;;0.60;99.90;;;;;;5052710;28;20033;-75
2023/01/18 02:34:02;;;;;;;8.85;4.35;;;0.50;99.90;;;;;;5054314;28;20037;-75
2023/01/18 02:36:40;;;;;;;8.30;4.53;;;0.50;99.90;;;;;;5043498;28;20049;-75
2023/01/18 02:39:21;;;;;;;10.07;4.40;;;0.50;99.90;;;;;;5034492;28;20049;-75
2023/01/18 02:47:28;;;;;;;8.70;4.82;;;0.40;99.90;;;;;;5052073;28;20052;-75
2023/01/18 02:49:56;;;;;;;10.63;4.60;;;0.40;99.90;;;;;;5052959;28;20036;-75
2023/01/18 02:52:38;;;;;;;9.85;4.88;;;0.40;99.90;;;;;;5053942;28;20048;-75
2023/01/18 02:55:08;;;;;;;9.55;4.82;;;0.40;99.90;;;;;;5052993;28;20045;-75
2023/01/18 02:57:34;;;;;;;9.70;5.00;;;0.40;99.90;;;;;;5037332;28;20044;-75
2023/01/18 03:00:04;;;;;;;9.18;5.00;;;0.40;99.90;;;;;;5053912;28;20044;-75
2023/01/18 03:02:29;;;;;;;8.63;4.90;;;0.40;99.90;;;;;;5052242;28;20049;-74
2023/01/18 03:04:55;;;;;;;8.15;4.38;;;0.40;99.90;;;;;;5053552;28;20125;-74
2023/01/18 03:07:27;;;;;;;8.38;4.75;;;0.40;99.90;;;;;;5053909;28;20037;-74
2023/01/18 03:09:53;;;;;;;8.98;4.75;;;0.40;99.90;;;;;;5053857;28;20413;-75
2023/01/18 03:12:44;;;;;;;9.05;4.30;;;0.40;99.90;;;;;;5052599;28;20607;-75
2023/01/18 03:15:16;;;;;;;8.45;4.55;;;0.40;99.90;;;;;;5052779;28;20044;-75
2023/01/18 03:17:51;;;;;;;8.73;4.53;;;0.40;99.90;;;;;;5041068;28;20045;-75
2023/01/18 03:20:25;;;;;;;7.80;4.03;;;0.40;99.90;;;;;;5044726;28;20119;-75
2023/01/18 03:25:59;;;;;;;9.85;5.20;;;0.40;99.90;;;;;;5052445;28;20493;-73
2023/01/18 03:34:37;;;;;;;9.30;5.00;;;0.40;99.90;;;;;;5052536;28;20402;-74
2023/01/18 03:37:08;;;;;;;9.23;5.10;;;0.40;99.90;;;;;;5051723;28;20049;-74
2023/01/18 03:39:44;;;;;;;8.88;4.63;;;0.40;99.90;;;;;;5063774;28;20045;-73
2023/01/18 03:42:32;;;;;;;9.55;4.35;;;0.40;99.90;;;;;;5030154;28;20045;-74
2023/01/18 03:45:08;;;;;;;9.30;5.00;;;0.30;99.90;;;;;;5051929;28;20056;-73
2023/01/18 03:47:34;;;;;;;9.27;5.55;;;0.30;99.90;;;;;;5033722;28;20485;-73
2023/01/18 03:50:00;;;;;;;11.48;4.85;;;0.30;99.90;;;;;;5069404;28;20045;-73
2023/01/18 03:52:43;;;;;;;7.63;4.63;;;0.30;99.90;;;;;;5059205;28;20037;-74
2023/01/18 03:55:38;;;;;;;10.45;5.22;;;0.30;99.90;;;;;;5051185;28;20044;-74
2023/01/18 03:58:09;;;;;;;10.57;5.35;;;0.30;99.90;;;;;;5051243;28;20385;-74
2023/01/18 04:00:36;;;;;;;10.25;5.57;;;0.30;99.90;;;;;;5043867;28;20055;-74
2023/01/18 04:03:01;;;;;;;10.93;5.53;;;0.30;99.90;;;;;;5058010;28;20041;-74
2023/01/18 04:05:27;;;;;;;10.18;5.95;;;0.40;99.90;;;;;;5051522;28;20111;-74
2023/01/18 04:07:52;;;;;;;8.70;5.45;;;0.40;99.90;;;;;;5048698;28;20139;-74
2023/01/18 04:10:18;;;;;;;9.40;5.85;;;0.40;99.90;;;;;;5049740;28;20127;-74
2023/01/18 04:12:45;;;;;;;11.05;6.47;;;0.40;99.90;;;;;;5044706;28;20128;-74
2023/01/18 04:15:11;;;;;;;9.80;5.60;;;0.40;99.90;;;;;;5066680;28;20076;-74
2023/01/18 04:17:36;;;;;;;9.45;5.68;;;0.40;99.90;;;;;;5064745;28;20123;-74
2023/01/18 04:20:03;;;;;;;11.75;5.80;;;0.40;99.90;;;;;;5048693;28;20525;-74
2023/01/18 04:22:29;;;;;;;9.68;5.43;;;0.40;99.90;;;;;;5030687;28;20048;-74
2023/01/18 04:24:54;;;;;;;10.07;5.68;;;0.40;99.90;;;;;;5051429;28;20127;-74
2023/01/18 04:27:20;;;;;;;10.00;5.40;;;0.40;99.90;;;;;;5040586;28;20131;-74
2023/01/18 04:29:45;;;;;;;9.68;5.68;;;0.40;99.90;;;;;;5034798;28;20469;-75
2023/01/18 04:32:11;;;;;;;10.15;5.65;;;0.30;99.90;;;;;;5048629;28;20033;-73
2023/01/18 04:34:37;;;;;;;10.23;5.72;;;0.30;99.90;;;;;;5034059;28;20076;-73
2023/01/18 04:37:02;;;;;;;10.65;6.05;;;0.20;99.90;;;;;;5033399;28;20120;-73
2023/01/18 04:39:28;;;;;;;10.38;5.70;;;0.20;99.90;;;;;;5050088;28;20047;-73
2023/01/18 04:41:53;;;;;;;10.60;6.22;;;0.20;99.90;;;;;;5069029;28;20045;-73
2023/01/18 04:44:19;;;;;;;9.40;5.53;;;0.10;99.90;;;;;;5059877;28;20129;-73
2023/01/18 04:46:46;;;;;;;8.60;5.57;;;0.10;99.90;;;;;;5050048;28;20045;-74
2023/01/18 04:49:14;;;;;;;11.05;6.20;;;0.20;99.90;;;;;;5066293;28;20044;-74
2023/01/18 04:51:41;;;;;;;11.88;5.63;;;0.10;99.90;;;;;;5040658;28;20490;-74
2023/01/18 04:54:07;;;;;;;11.43;5.45;;;0.20;99.90;;;;;;5050916;28;20039;-74
2023/01/18 04:56:33;;;;;;;11.15;5.93;;;0.20;99.90;;;;;;5049801;28;20040;-74
2023/01/18 04:58:59;;;;;;;11.38;5.78;;;0.10;99.90;;;;;;5051855;28;20049;-74
2023/01/18 05:01:25;;;;;;;9.82;5.72;;;0.10;99.90;;;;;;5050962;28;20131;-74
2023/01/18 05:03:54;;;;;;;10.18;5.93;;;0.10;99.90;;;;;;5033451;28;20048;-74
2023/01/18 05:06:21;;;;;;;10.65;6.40;;;0.20;99.90;;;;;;5050481;28;20083;-74
2023/01/18 05:08:46;;;;;;;9.50;5.72;;;0.10;99.90;;;;;;5049667;28;20394;-74
2023/01/18 05:11:15;;;;;;;10.60;6.07;;;0.10;99.90;;;;;;5049059;28;20037;-74
2023/01/18 05:13:41;;;;;;;9.93;5.55;;;0.10;99.90;;;;;;5056717;28;20050;-74
2023/01/18 05:16:13;;;;;;;9.38;5.43;;;0.20;99.90;;;;;;5031885;28;20041;-74
2023/01/18 05:18:38;;;;;;;12.90;6.23;;;0.20;99.90;;;;;;5049905;28;20044;-74
2023/01/18 05:21:04;;;;;;;9.88;5.40;;;0.20;99.90;;;;;;5050982;28;20568;-74
2023/01/18 05:23:30;;;;;;;9.70;5.63;;;0.10;99.90;;;;;;5068580;28;20048;-74
2023/01/18 05:25:56;;;;;;;11.27;6.03;;;0.20;99.90;;;;;;5067775;28;20049;-74
2023/01/18 05:28:23;;;;;;;9.48;5.47;;;0.10;99.90;;;;;;5061420;28;20048;-74
2023/01/18 05:30:50;;;;;;;9.38;4.93;;;0.20;99.90;;;;;;5054009;28;20041;-74
2023/01/18 05:33:17;;;;;;;9.38;5.70;;;0.20;99.90;;;;;;5072120;28;20045;-74
2023/01/18 05:35:47;;;;;;;10.70;5.68;;;0.20;99.90;;;;;;5064496;28;20061;-74
2023/01/18 05:38:13;;;;;;;11.30;5.80;;;0.20;99.90;;;;;;5035482;28;20057;-74
2023/01/18 05:40:41;;;;;;;9.35;5.63;;;0.20;99.90;;;;;;5039271;28;20040;-74
2023/01/18 05:43:06;;;;;;;10.18;5.82;;;0.20;99.90;;;;;;5054667;28;20535;-74
2023/01/18 05:45:32;;;;;;;10.15;5.78;;;0.20;99.90;;;;;;5070575;28;20036;-74
2023/01/18 05:47:58;;;;;;;9.65;5.38;;;0.20;99.90;;;;;;5053134;28;20574;-74
2023/01/18 05:50:24;;;;;;;12.60;6.00;;;0.20;99.90;;;;;;5071231;28;20049;-74
2023/01/18 05:52:49;;;;;;;9.45;5.22;;;0.20;99.90;;;;;;5053330;28;20045;-74
2023/01/18 05:55:15;;;;;;;10.45;5.55;;;0.10;99.90;;;;;;5055098;28;20044;-74
2023/01/18 05:57:40;;;;;;;10.15;5.13;;;0.10;99.90;;;;;;5036457;28;20048;-74
2023/01/18 06:00:08;;;;;;;11.35;5.85;;;0.10;99.90;;;;;;5053200;28;20044;-74
2023/01/18 06:02:33;;;;;;;10.75;5.80;;;0.10;99.90;;;;;;5052089;28;20128;-74
2023/01/18 06:04:59;;;;;;;11.07;5.70;;;0.10;99.90;;;;;;5036908;28;20191;-74
2023/01/18 06:07:25;;;;;;;8.88;5.13;;;0.20;99.90;;;;;;5055071;28;20032;-74
2023/01/18 06:09:50;;;;;;;9.95;5.80;;;0.20;99.90;;;;;;5053598;28;20540;-74
2023/01/18 06:12:16;;;;;;;10.93;5.63;;;0.20;99.90;;;;;;5064857;28;20049;-74
2023/01/18 06:14:41;;;;;;;9.80;5.63;;;0.20;99.90;;;;;;5063085;28;20036;-74
2023/01/18 06:17:07;;;;;;;11.32;5.68;;;0.20;99.90;;;;;;5037828;28;20061;-75
2023/01/18 06:19:33;;;;;;;8.93;5.53;;;0.20;99.90;;;;;;5050143;28;20040;-73
2023/01/18 06:21:59;;;;;;;11.88;5.95;;;0.20;99.90;;;;;;5056305;28;20072;-74
2023/01/18 06:24:24;;;;;;;9.45;5.32;;;0.20;99.90;;;;;;5051416;28;20416;-73
2023/01/18 06:26:50;;;;;;;10.25;5.38;;;0.30;99.90;;;;;;5034906;28;20033;-74
2023/01/18 06:29:15;;;;;;;10.60;5.57;;;0.30;99.90;;;;;;5051805;28;20037;-74
2023/01/18 06:31:41;;;;;;;9.82;5.30;;;0.30;99.90;;;;;;5036103;28;20045;-74
2023/01/18 06:34:08;;;;;;;10.15;5.47;;;0.30;99.90;;;;;;5052449;28;20033;-74
2023/01/18 06:36:38;;;;;;;9.52;5.32;;;0.30;99.90;;;;;;5050974;28;20474;-74
2023/01/18 06:39:04;;;;;;;11.27;5.95;;;0.20;99.90;;;;;;5036004;28;20512;-74
2023/01/18 06:41:30;;;;;;;10.45;6.03;;;0.20;99.90;;;;;;5041464;28;20049;-74
2023/01/18 06:43:55;;;;;;;10.30;5.20;;;0.20;99.90;;;;;;5061272;28;20046;-74
2023/01/18 06:46:21;;;;;;;10.25;5.20;;;0.20;99.90;;;;;;5042447;28;20044;-74
2023/01/18 06:48:47;;;;;;;12.13;5.68;;;0.20;99.90;;;;;;5066288;28;20044;-74
2023/01/18 06:51:13;;;;;;;10.10;5.15;;;0.30;99.90;;;;;;5043230;28;20096;-74
2023/01/18 06:53:39;;;;;;;8.27;4.93;;;0.30;99.90;;;;;;5047375;28;20033;-73
2023/01/18 06:56:09;;;;;;;9.00;5.45;;;0.40;99.90;;;;;;5053883;28;20041;-73
2023/01/18 06:58:35;;;;;;;12.10;4.93;;;0.40;99.90;;;;;;5034100;28;20115;-74
2023/01/18 07:01:02;;;;;;;8.82;4.60;;;0.40;99.90;;;;;;5044744;28;20040;-73
2023/01/18 07:03:29;;;;;;;11.00;4.93;;;0.40;99.90;;;;;;5052362;28;20127;-73
2023/01/18 07:05:56;;;;;;;8.43;4.50;;;0.50;99.90;;;;;;5053564;28;20068;-73
2023/01/18 07:08:22;;;;;;;10.73;5.45;;;0.50;99.90;;;;;;5053618;28;20120;-74
2023/01/18 07:10:48;;;;;;;10.43;4.20;;;0.40;99.90;;;;;;5052353;28;20052;-74
2023/01/18 07:13:14;;;;;;;9.88;4.72;;;0.40;99.90;;;;;;5053780;28;20504;-74
2023/01/18 07:15:39;;;;;;;9.82;4.43;;;0.30;99.90;;;;;;5053401;28;20045;-73
2023/01/18 07:18:05;;;;;;;11.82;5.45;;;0.40;99.90;;;;;;5052795;28;20052;-73
2023/01/18 07:20:31;;;;;;;8.50;3.58;;;0.40;99.90;;;;;;5052599;28;20056;-73
2023/01/18 07:22:57;;;;;;;9.05;4.00;;;0.40;99.90;;;;;;5053383;28;20056;-73
2023/01/18 07:25:24;;;;;;;11.55;4.70;;;0.40;99.90;;;;;;5053378;28;20048;-74
2023/01/18 07:27:50;;;;;;;10.13;4.47;;;0.40;99.90;;;;;;5052133;28;20048;-73
2023/01/18 07:30:16;;;;;;;10.32;4.80;;;0.40;99.90;;;;;;5053284;28;20041;-73
2023/01/18 07:32:50;;;;;;;11.85;4.57;;;0.50;99.90;;;;;;5051676;28;20400;-73
2023/01/18 07:35:18;;;;;;;8.60;4.60;;;0.50;99.90;;;;;;5052531;28;20037;-73
2023/01/18 07:37:51;;;;;;;8.77;4.28;;;0.50;99.90;;;;;;5042290;28;20051;-73
2023/01/18 07:40:20;;;;;;;9.45;4.70;;;0.50;99.90;;;;;;5017507;28;20041;-74
2023/01/18 07:42:46;;;;;;;12.07;4.32;;;0.50;99.90;;;;;;5050615;28;20500;-74
2023/01/18 07:45:12;;;;;;;10.55;4.93;;;0.50;99.90;;;;;;5054662;28;20056;-74
2023/01/18 07:47:41;;;;;;;10.00;4.47;;;0.50;99.90;;;;;;5051998;28;20048;-73
2023/01/18 07:50:08;;;;;;;8.40;4.50;;;0.50;99.90;;;;;;5052679;28;20037;-78
2023/01/18 07:52:34;;;;;;;9.20;4.55;;;0.50;99.90;;;;;;5035861;28;20120;-68
2023/01/18 07:55:00;;;;;;;9.63;4.68;;;0.50;99.90;;;;;;5052829;28;20506;-72
2023/01/18 07:57:25;;;;;;;8.27;4.28;;;0.60;99.90;;;;;;5052004;28;20041;-75
2023/01/18 07:59:51;;;;;;;10.95;4.95;;;0.60;99.90;;;;;;5052704;28;20473;-74
2023/01/18 08:02:17;;;;;;;8.93;4.15;;;0.60;99.90;;;;;;5053843;28;20367;-74
2023/01/18 08:04:44;;;;;;;8.73;4.07;;;0.70;99.90;;;;;;5015974;28;20060;-74
2023/01/18 08:07:10;;;;;;;8.13;3.67;;;0.60;99.90;;;;;;5056692;28;20082;-74
2023/01/18 08:09:35;;;;;;;12.00;4.53;;;0.70;99.90;;;;;;5052506;28;20036;-74
2023/01/18 08:12:01;;;;;;;10.38;4.70;;;0.60;99.90;;;;;;5040206;28;20150;-74
2023/01/18 08:14:26;;;;;;;10.10;4.80;;;0.60;99.90;;;;;;5032536;28;20041;-74
2023/01/18 08:16:52;;;;;;;8.65;4.40;;;0.60;99.90;;;;;;5056530;28;20036;-74
2023/01/18 08:19:18;;;;;;;9.82;4.80;;;0.50;99.90;;;;;;5052748;28;20489;-74
2023/01/18 08:21:46;;;;;;;10.05;5.20;;;0.50;99.90;;;;;;5051346;28;20052;-74
2023/01/18 08:24:12;;;;;;;11.98;4.65;;;0.50;99.90;;;;;;5068854;28;20045;-74
2023/01/18 08:26:38;;;;;;;9.63;4.97;;;0.50;99.90;;;;;;5043165;28;20052;-74
2023/01/18 08:29:05;;;;;;;8.70;4.57;;;0.60;99.90;;;;;;5050559;28;20056;-74
2023/01/18 08:31:31;;;;;;;11.27;4.35;;;0.60;99.90;;;;;;5045035;28;20065;-74
2023/01/18 08:33:57;;;;;;;11.18;4.95;;;0.60;99.90;;;;;;5032377;28;20091;-72
2023/01/18 08:36:24;;;;;;;10.20;4.60;;;0.60;99.90;;;;;;5054117;28;20065;-73
2023/01/18 08:38:55;;;;;;;8.82;4.70;;;0.60;99.90;;;;;;5052047;28;20075;-74
2023/01/18 08:41:26;;;;;;;10.77;5.00;;;0.50;99.90;;;;;;5049366;28;20063;-74
2023/01/18 08:43:53;;;;;;;9.63;4.67;;;0.50;99.90;;;;;;5052241;28;20160;-74
2023/01/18 08:46:19;;;;;;;13.20;5.82;;;0.50;99.90;;;;;;5051194;28;20045;-74
2023/01/18 08:48:49;;;;;;;9.50;5.20;;;0.60;99.90;;;;;;5051049;28;20505;-74
2023/01/18 08:51:16;;;;;;;9.70;5.20;;;0.60;99.90;;;;;;5050157;28;20032;-74
2023/01/18 08:53:42;;;;;;;11.65;5.82;;;0.60;99.90;;;;;;5052107;28;20048;-74
2023/01/18 08:56:08;;;;;;;10.52;5.25;;;0.60;99.90;;;;;;5068576;28;20040;-74
2023/01/18 08:58:34;;;;;;;11.68;4.82;;;0.70;99.90;;;;;;5050971;28;20051;-74
2023/01/18 09:01:04;;;;;;;9.85;5.03;;;0.70;99.90;;;;;;5050505;28;20037;-74
2023/01/18 09:03:30;;;;;;;12.93;5.82;;;0.70;99.90;;;;;;5032207;28;20513;-74
2023/01/18 09:05:59;;;;;;;9.32;5.45;;;0.70;99.90;;;;;;5031651;28;20049;-74
2023/01/18 09:08:25;;;;;;;8.90;4.72;;;0.70;99.90;;;;;;5049621;28;20041;-74
2023/01/18 09:10:51;;;;;;;11.45;5.30;;;0.80;99.90;;;;;;5050804;28;20056;-74
2023/01/18 09:13:16;;;;;;;13.18;6.07;;;0.80;99.90;;;;;;5050671;28;20036;-74
2023/01/18 09:15:42;;;;;;;11.43;5.07;;;0.80;99.90;;;;;;5051126;28;20091;-74
2023/01/18 09:18:07;;;;;;;9.90;5.20;;;0.90;99.90;;;;;;5050830;28;20126;-74
2023/01/18 09:20:34;;;;;;;10.52;6.00;;;0.80;99.90;;;;;;5051612;28;20511;-74
2023/01/18 09:23:08;;;;;;;10.77;5.50;;;0.90;99.90;;;;;;5036848;28;20460;-74
2023/01/18 09:25:39;;;;;;;9.07;5.35;;;0.90;99.90;;;;;;5051508;28;20072;-74
2023/01/18 09:28:05;;;;;;;9.82;5.20;;;0.90;99.90;;;;;;5068099;28;20505;-74
2023/01/18 09:30:31;;;;;;;11.15;5.43;;;1.00;99.90;;;;;;5051544;28;20048;-74
2023/01/18 09:32:57;;;;;;;12.60;5.80;;;1.10;99.90;;;;;;5049931;28;20509;-74
2023/01/18 09:35:23;;;;;;;10.68;5.72;;;1.00;99.90;;;;;;5051711;28;20083;-74
2023/01/18 09:37:48;;;;;;;10.45;5.88;;;1.10;99.90;;;;;;5051485;28;20041;-74
2023/01/18 09:40:16;;;;;;;10.25;5.78;;;1.10;99.90;;;;;;5051528;28;20103;-74
2023/01/18 09:42:43;;;;;;;10.93;5.55;;;1.20;99.90;;;;;;5053896;28;20037;-76
2023/01/18 09:45:25;;;;;;;10.07;5.85;;;1.10;99.90;;;;;;5031271;28;20119;-73
2023/01/18 09:47:58;;;;;;;12.63;5.70;;;1.30;99.90;;;;;;5031418;28;20049;-73
2023/01/18 09:50:24;;;;;;;11.27;6.05;;;1.30;99.90;;;;;;5015014;28;20508;-73
2023/01/18 09:53:16;;;;;;;11.57;5.70;;;1.40;99.90;;;;;;5017824;28;20436;-73
2023/01/18 09:55:47;;;;;;;10.27;5.43;;;1.50;99.90;;;;;;5039252;28;20037;-73
2023/01/18 09:58:27;;;;;;;10.00;5.88;;;1.50;99.90;;;;;;5051560;28;20052;-73
2023/01/18 10:01:01;;;;;;;11.50;6.25;;;1.60;99.90;;;;;;5034724;28;20052;-73
2023/01/18 10:03:47;;;;;;;15.85;7.00;;;1.60;99.90;;;;;;5049466;28;20120;-73
2023/01/18 10:06:31;;;;;;;10.10;5.78;;;1.70;99.90;;;;;;5030581;28;20100;-73
2023/01/18 10:09:03;;;;;;;9.75;5.50;;;1.80;99.90;;;;;;5057953;28;20049;-73
2023/01/18 10:11:32;;;;;;;;;;;1.90;99.90;;;;;;5052420;28;20120;-74
2023/01/18 10:13:57;;;;;;;10.10;5.43;;;2.00;99.90;;;;;;5054740;28;19916;-74
2023/01/18 10:16:24;;;;;;;10.73;6.03;;;2.10;99.90;;;;;;5036869;28;20099;-74
2023/01/18 10:18:54;;;;;;;9.20;5.80;;;2.20;99.90;;;;;;5070537;28;20124;-75
2023/01/18 10:21:29;;;;;;;11.10;5.70;;;2.30;99.90;;;;;;5053930;28;20049;-74
2023/01/18 10:24:16;;;;;;;12.75;6.22;;;2.30;99.90;;;;;;5053921;28;20076;-74
2023/01/18 10:26:45;;;;;;;10.27;5.75;;;2.40;99.90;;;;;;5053438;28;20112;-74
2023/01/18 10:29:20;;;;;;;9.82;5.50;;;2.50;99.90;;;;;;5050731;28;20041;-74
2023/01/18 10:32:21;;;;;;;10.98;6.15;;;2.70;99.90;;;;;;5051158;28;20076;-75
2023/01/18 10:34:50;;;;;;;11.65;5.65;;;2.80;99.90;;;;;;5013333;28;20057;-75
2023/01/18 10:37:41;;;;;;;10.27;5.53;;;2.90;99.90;;;;;;5059686;28;20037;-75
2023/01/18 10:40:09;;;;;;;13.32;5.70;;;3.00;99.90;;;;;;5052751;28;20040;-75
2023/01/18 10:42:43;;;;;;;9.38;5.10;;;3.10;99.90;;;;;;5053667;28;20138;-75
2023/01/18 10:45:20;;;;;;;8.75;4.97;;;3.20;99.90;;;;;;5068716;28;20052;-75
2023/01/18 10:47:47;;;;;;;9.02;4.53;;;3.30;99.90;;;;;;5053350;28;20402;-75
2023/01/18 10:50:19;;;;;;;10.20;5.15;;;3.40;99.90;;;;;;5053926;28;20094;-75
2023/01/18 10:52:45;;;;;;;10.07;4.55;;;3.40;99.90;;;;;;5054305;28;20059;-75
2023/01/18 10:55:16;;;;;;;9.05;4.47;;;3.50;99.90;;;;;;5053829;28;20045;-75
2023/01/18 10:57:53;;;;;;;10.93;4.97;;;3.60;99.90;;;;;;5044537;28;20143;-75
2023/01/18 11:00:33;;;;;;;10.95;4.75;;;3.60;99.90;;;;;;5053034;28;20052;-76
2023/01/18 11:03:02;;;;;;;9.25;5.32;;;3.70;99.90;;;;;;5069610;28;20040;-76
2023/01/18 11:05:42;;;;;;;8.73;4.30;;;3.80;99.90;;;;;;5052548;28;20061;-76
2023/01/18 11:08:42;;;;;;;9.40;4.57;;;3.80;99.90;;;;;;5052373;28;20049;-76
2023/01/18 11:14:30;;;;;;;8.65;4.80;;;3.90;99.90;;;;;;5053632;28;20044;-76
2023/01/18 11:16:58;;;;;;;9.45;4.70;;;4.00;99.90;;;;;;5048966;28;20150;-76
2023/01/18 11:19:24;;;;;;;8.65;4.00;;;4.00;99.90;;;;;;5050187;28;20432;-76
2023/01/18 11:21:51;;;;;;;12.18;4.82;;;4.00;99.90;;;;;;5062785;28;20041;-76
2023/01/18 11:24:26;;;;;;;9.25;4.60;;;4.00;99.90;;;;;;5052129;28;20056;-76
2023/01/18 11:27:04;;;;;;;7.05;3.50;;;4.00;99.90;;;;;;5042326;28;20048;-76
2023/01/18 11:29:41;;;;;;;6.65;3.60;;;4.00;99.90;;;;;;5052341;28;20405;-76
2023/01/18 11:32:19;;;;;;;8.63;4.15;;;4.00;99.90;;;;;;5032269;28;20549;-77
2023/01/18 11:34:50;;;;;;;7.93;3.45;;;4.00;99.90;;;;;;5043033;28;20082;-77
2023/01/18 11:37:30;;;;;;;7.25;3.75;;;4.00;99.90;;;;;;5049399;28;20043;-76
2023/01/18 11:39:56;;;;;;;7.97;4.30;;;4.00;99.90;;;;;;5052979;28;20067;-77
2023/01/18 11:42:33;;;;;;;9.90;4.10;;;3.90;99.90;;;;;;5050497;28;20159;-77
2023/01/18 11:45:21;;;;;;;8.88;3.65;;;3.90;99.90;;;;;;5052870;28;20041;-78
2023/01/18 11:47:56;;;;;;;6.45;3.33;;;4.00;99.90;;;;;;5052234;28;20060;-78
2023/01/18 11:50:42;;;;;;;7.28;3.28;;;3.90;99.90;;;;;;5050664;28;20047;-78
2023/01/18 11:53:37;;;;;;;9.32;3.90;;;4.00;99.90;;;;;;5058657;28;20107;-78
2023/01/18 11:56:49;;;;;;;8.05;3.65;;;4.00;99.90;;;;;;5050874;28;20052;-79
2023/01/18 11:59:30;;;;;;;5.55;2.95;;;4.00;99.90;;;;;;4991973;28;20088;-78
2023/01/18 12:02:33;;;;;;;8.27;3.90;;;4.00;99.90;;;;;;4976421;28;20052;-78
2023/01/18 12:05:25;;;;;;;8.80;3.33;;;4.00;99.90;;;;;;5049033;28;20041;-78
2023/01/18 12:07:57;;;;;;;6.97;3.20;;;4.00;99.90;;;;;;5032224;28;20056;-78
2023/01/18 12:10:25;;;;;;;8.63;3.58;;;4.00;99.90;;;;;;5039451;28;20047;-78
2023/01/18 12:13:29;;;;;;;11.68;3.67;;;4.00;99.90;;;;;;5034579;28;20083;-79
2023/01/18 12:16:21;;;;;;;7.68;3.05;;;4.10;99.90;;;;;;5051346;28;20041;-78
2023/01/18 12:19:22;;;;;;;7.45;2.22;;;4.10;99.90;;;;;;5061445;28;20052;-78
2023/01/18 12:22:09;;;;;;;6.57;2.33;;;4.10;99.90;;;;;;5059303;28;20049;-79
2023/01/18 12:24:46;;;;;;;7.72;3.20;;;4.20;99.90;;;;;;5053025;28;20048;-79
2023/01/18 12:27:36;;;;;;;8.07;3.10;;;4.20;99.90;;;;;;5068216;28;20084;-79
2023/01/18 12:30:06;;;;;;;4.40;2.20;;;4.20;99.90;;;;;;5059401;28;20049;-78
2023/01/18 12:32:44;;;;;;;7.05;3.70;;;4.20;99.90;;;;;;5051001;28;20041;-78
2023/01/18 12:35:15;;;;;;;6.05;2.72;;;4.20;99.90;;;;;;5038658;28;20069;-79
2023/01/18 12:38:03;;;;;;;7.03;2.47;;;4.30;99.90;;;;;;5043154;28;20037;-79
2023/01/18 12:40:43;;;;;;;7.13;2.47;;;4.30;99.90;;;;;;5041436;28;20047;-79
2023/01/18 12:43:09;;;;;;;9.18;3.10;;;4.40;99.90;;;;;;5052137;28;20047;-79
2023/01/18 12:45:39;;;;;;;8.05;3.00;;;4.40;99.90;;;;;;5039340;28;20468;-79
2023/01/18 12:48:28;;;;;;;6.97;3.15;;;4.40;99.90;;;;;;5049549;28;20049;-79
2023/01/18 12:50:55;;;;;;;6.22;2.50;;;4.40;99.90;;;;;;5048986;28;20520;-79
2023/01/18 12:53:50;;;;;;;6.10;2.90;;;4.50;99.90;;;;;;5050495;28;20049;-79
2023/01/18 12:56:36;;;;;;;4.68;2.28;;;4.50;99.90;;;;;;5055263;28;20079;-79
2023/01/18 12:59:10;;;;;;;6.85;3.05;;;4.50;99.90;;;;;;5045441;28;20076;-79
2023/01/18 13:01:41;;;;;;;6.80;2.42;;;4.50;99.90;;;;;;5050953;28;20080;-79
2023/01/18 13:04:20;;;;;;;7.18;3.17;;;4.50;99.90;;;;;;5047572;28;20074;-79
2023/01/18 13:06:49;;;;;;;8.77;3.55;;;4.50;99.90;;;;;;5031704;28;20130;-79
2023/01/18 13:09:25;;;;;;;7.25;4.00;;;4.50;99.90;;;;;;5047733;28;20413;-79
2023/01/18 13:11:51;;;;;;;9.50;3.15;;;4.50;99.90;;;;;;5050356;28;20033;-79
2023/01/18 13:14:37;;;;;;;6.93;3.40;;;4.50;99.90;;;;;;5048517;28;20048;-79
2023/01/18 13:17:09;;;;;;;8.43;2.72;;;4.60;99.90;;;;;;5031470;28;20071;-78
2023/01/18 13:19:43;;;;;;;8.65;3.47;;;4.60;99.90;;;;;;5046902;28;20083;-79
2023/01/18 13:22:35;;;;;;;6.63;3.20;;;4.60;99.90;;;;;;5048739;28;20048;-79
2023/01/18 13:25:29;;;;;;;7.75;2.90;;;4.70;99.90;;;;;;5050221;28;20096;-79
2023/01/18 13:27:57;;;;;;;8.52;2.92;;;4.70;99.90;;;;;;5032150;28;20050;-79
2023/01/18 13:30:23;;;;;;;4.93;2.50;;;4.70;99.90;;;;;;5045237;28;20128;-79
2023/01/18 13:32:50;;;;;;;11.65;4.20;;;4.70;99.90;;;;;;5031615;28;20117;-79
2023/01/18 13:35:32;;;;;;;7.07;2.95;;;4.70;99.90;;;;;;5031179;28;20046;-79
2023/01/18 13:38:02;;;;;;;10.00;2.67;;;4.70;99.90;;;;;;5066815;28;20102;-79
2023/01/18 13:40:34;;;;;;;10.05;3.10;;;4.60;99.90;;;;;;5049497;28;20111;-79
2023/01/18 13:42:59;;;;;;;7.55;3.55;;;4.60;99.90;;;;;;5041755;28;20046;-78
2023/01/18 13:45:29;;;;;;;6.85;2.78;;;4.50;99.90;;;;;;5051125;28;20121;-78
2023/01/18 13:47:58;;;;;;;4.45;2.15;;;4.50;99.90;;;;;;5048521;28;20494;-78